Time;durP1;ratioP1;P1;durP2;ratioP2;P2;SDS_P1;SDS_P2;PMS_P1;PMS_P2;Temp;Humidity;BMP_temperature;BMP_pressure;BME280_temperature;BME280_humidity;BME280_pressure;Samples;Min_cycle;Max_cycle;Signal;HPM_P1;HPM_P2
2023/08/16 00:02:07;;;;;;;4.95;3.90;;;;;;;;;;5099607;28;20292;-65
2023/08/16 00:04:35;;;;;;;4.70;3.67;;;;;;;;;;5099394;28;20210;-65
2023/08/16 00:07:02;;;;;;;4.07;3.72;;;;;;;;;;5099367;28;20203;-65
2023/08/16 00:09:30;;;;;;;3.95;3.65;;;;;;;;;;5099607;28;20208;-65
2023/08/16 00:11:59;;;;;;;6.50;3.70;;;;;;;;;;5099337;28;20200;-65
2023/08/16 00:14:27;;;;;;;4.20;3.80;;;;;;;;;;5099312;28;20211;-65
2023/08/16 00:16:54;;;;;;;4.18;3.78;;;;;;;;;;5099261;28;20204;-65
2023/08/16 00:19:22;;;;;;;4.28;3.88;;;;;;;;;;5099103;28;20208;-69
2023/08/16 00:21:49;;;;;;;4.60;4.07;;;;;;;;;;5099351;28;20227;-66
2023/08/16 00:24:17;;;;;;;4.68;4.25;;;;;;;;;;5099134;28;20610;-65
2023/08/16 00:26:45;;;;;;;4.45;4.03;;;;;;;;;;5099519;28;20253;-65
2023/08/16 00:29:14;;;;;;;4.70;3.85;;;;;;;;;;5099119;28;20204;-65
2023/08/16 00:31:41;;;;;;;4.80;4.00;;;;;;;;;;5098848;28;20199;-65
2023/08/16 00:34:09;;;;;;;4.45;4.05;;;;;;;;;;5098851;28;20294;-65
2023/08/16 00:36:36;;;;;;;4.28;3.88;;;;;;;;;;5098768;28;20858;-65
2023/08/16 00:39:04;;;;;;;4.32;3.80;;;;;;;;;;5099280;28;20269;-65
2023/08/16 00:41:32;;;;;;;4.40;4.10;;;;;;;;;;5098316;28;20304;-66
2023/08/16 00:43:59;;;;;;;5.03;4.30;;;;;;;;;;5098927;28;20203;-65
2023/08/16 00:46:30;;;;;;;4.50;4.20;;;;;;;;;;5098350;28;20207;-65
2023/08/16 00:48:57;;;;;;;4.22;3.90;;;;;;;;;;5098705;28;20270;-64
2023/08/16 00:51:25;;;;;;;4.15;3.90;;;;;;;;;;5099080;28;20200;-64
2023/08/16 00:53:53;;;;;;;4.95;4.18;;;;;;;;;;5098335;28;20277;-64
2023/08/16 00:56:21;;;;;;;4.30;3.90;;;;;;;;;;5098313;28;20203;-64
2023/08/16 00:58:48;;;;;;;4.65;4.28;;;;;;;;;;5097951;28;20211;-64
2023/08/16 01:01:17;;;;;;;4.68;4.28;;;;;;;;;;5098231;28;20255;-64
2023/08/16 01:03:47;;;;;;;7.05;5.05;;;;;;;;;;5098551;28;20230;-65
2023/08/16 01:06:15;;;;;;;4.80;4.40;;;;;;;;;;5098420;28;20203;-64
2023/08/16 01:08:42;;;;;;;5.47;5.07;;;;;;;;;;5098134;28;20203;-65
2023/08/16 01:11:13;;;;;;;6.63;6.13;;;;;;;;;;5098454;28;20211;-65
2023/08/16 01:13:45;;;;;;;7.15;6.53;;;;;;;;;;5098468;28;20268;-64
2023/08/16 01:16:13;;;;;;;6.43;5.90;;;;;;;;;;5097919;28;20203;-65
2023/08/16 01:18:42;;;;;;;6.85;6.20;;;;;;;;;;5098436;28;20228;-65
2023/08/16 01:21:13;;;;;;;6.57;5.95;;;;;;;;;;5098068;28;20284;-65
2023/08/16 01:23:53;;;;;;;6.88;6.28;;;;;;;;;;5098340;28;20214;-64
2023/08/16 01:26:31;;;;;;;7.35;6.75;;;;;;;;;;5097534;28;20210;-66
2023/08/16 01:28:59;;;;;;;7.43;6.72;;;;;;;;;;5097256;28;20253;-65
2023/08/16 01:31:27;;;;;;;7.35;6.75;;;;;;;;;;5097901;28;20234;-65
2023/08/16 01:33:54;;;;;;;7.70;6.90;;;;;;;;;;5097907;28;20281;-65
2023/08/16 01:36:22;;;;;;;7.65;7.00;;;;;;;;;;5097947;28;20235;-65
2023/08/16 01:38:50;;;;;;;8.52;7.82;;;;;;;;;;5098134;28;20208;-65
2023/08/16 01:41:22;;;;;;;9.07;8.02;;;;;;;;;;5097951;28;20249;-65
2023/08/16 01:43:51;;;;;;;8.48;7.78;;;;;;;;;;5098097;28;20298;-65
2023/08/16 01:46:20;;;;;;;8.13;7.50;;;;;;;;;;5097840;28;20559;-65
2023/08/16 01:48:48;;;;;;;8.52;7.82;;;;;;;;;;5098277;28;20203;-65
2023/08/16 01:51:16;;;;;;;8.75;7.90;;;;;;;;;;5097732;28;20203;-65
2023/08/16 01:53:44;;;;;;;9.13;8.32;;;;;;;;;;5101539;28;20202;-65
2023/08/16 01:56:11;;;;;;;9.48;8.73;;;;;;;;;;5101930;28;20283;-65
2023/08/16 01:58:39;;;;;;;8.45;7.75;;;;;;;;;;5102150;28;20199;-65
2023/08/16 02:01:08;;;;;;;8.57;7.93;;;;;;;;;;5102165;28;20203;-64
2023/08/16 02:03:35;;;;;;;8.40;7.70;;;;;;;;;;5101866;28;20218;-65
2023/08/16 02:06:03;;;;;;;8.98;8.07;;;;;;;;;;5102307;28;20215;-65
2023/08/16 02:08:30;;;;;;;9.43;8.63;;;;;;;;;;5101960;28;20225;-65
2023/08/16 02:10:58;;;;;;;9.57;8.73;;;;;;;;;;5102095;28;20214;-65
2023/08/16 02:13:25;;;;;;;8.95;8.25;;;;;;;;;;5101687;28;20214;-65
2023/08/16 02:15:59;;;;;;;8.70;8.00;;;;;;;;;;5101403;28;20203;-65
2023/08/16 02:18:28;;;;;;;9.40;8.50;;;;;;;;;;5101598;28;20203;-65
2023/08/16 02:20:56;;;;;;;9.90;9.10;;;;;;;;;;5101413;28;20203;-65
2023/08/16 02:23:23;;;;;;;9.77;8.93;;;;;;;;;;5101451;28;20234;-64
2023/08/16 02:25:51;;;;;;;9.73;8.93;;;;;;;;;;5101638;28;20204;-64
2023/08/16 02:28:18;;;;;;;9.20;8.50;;;;;;;;;;5101639;28;20204;-64
2023/08/16 02:30:46;;;;;;;9.27;8.48;;;;;;;;;;5101249;28;20215;-65
2023/08/16 02:33:14;;;;;;;9.73;8.82;;;;;;;;;;5101622;28;20211;-65
2023/08/16 02:35:44;;;;;;;9.70;8.80;;;;;;;;;;5100676;28;20254;-65
2023/08/16 02:38:11;;;;;;;10.07;9.27;;;;;;;;;;5101238;28;20219;-64
2023/08/16 02:40:39;;;;;;;10.02;9.13;;;;;;;;;;5101013;28;20211;-65
2023/08/16 02:43:07;;;;;;;10.77;9.77;;;;;;;;;;5101094;28;20235;-64
2023/08/16 02:45:36;;;;;;;9.52;8.73;;;;;;;;;;5101554;28;20511;-64
2023/08/16 02:48:04;;;;;;;10.38;9.48;;;;;;;;;;5101398;28;20257;-65
2023/08/16 02:50:31;;;;;;;9.48;8.77;;;;;;;;;;5100780;28;20294;-65
2023/08/16 02:53:03;;;;;;;9.82;9.00;;;;;;;;;;5100987;28;20629;-65
2023/08/16 02:55:31;;;;;;;10.15;9.25;;;;;;;;;;5100497;28;20210;-65
2023/08/16 02:57:58;;;;;;;10.32;9.52;;;;;;;;;;5101073;28;20208;-64
2023/08/16 03:00:26;;;;;;;10.18;9.38;;;;;;;;;;5112054;28;20203;-65
2023/08/16 03:02:54;;;;;;;9.20;8.48;;;;;;;;;;5120876;28;20246;-65
2023/08/16 03:05:21;;;;;;;9.57;8.80;;;;;;;;;;5120002;28;20211;-65
2023/08/16 03:07:49;;;;;;;9.88;9.07;;;;;;;;;;5120979;27;20267;-65
2023/08/16 03:10:18;;;;;;;9.85;9.00;;;;;;;;;;5121257;28;20301;-65
2023/08/16 03:12:46;;;;;;;9.82;9.02;;;;;;;;;;5120500;28;20210;-64
2023/08/16 03:15:13;;;;;;;9.82;8.93;;;;;;;;;;5120602;28;20214;-65
2023/08/16 03:17:41;;;;;;;9.55;8.75;;;;;;;;;;5121168;28;20528;-65
2023/08/16 03:20:09;;;;;;;9.65;8.85;;;;;;;;;;5120833;27;20599;-65
2023/08/16 03:22:37;;;;;;;9.40;8.60;;;;;;;;;;5120440;28;20227;-65
2023/08/16 03:25:05;;;;;;;9.30;8.52;;;;;;;;;;5120571;28;20221;-65
2023/08/16 03:27:34;;;;;;;9.43;8.65;;;;;;;;;;5120018;28;20301;-65
2023/08/16 03:30:01;;;;;;;9.63;8.82;;;;;;;;;;5119962;28;20214;-65
2023/08/16 03:32:29;;;;;;;10.23;9.32;;;;;;;;;;5120610;28;20206;-65
2023/08/16 03:34:56;;;;;;;9.55;8.75;;;;;;;;;;5120170;28;20479;-65
2023/08/16 03:37:24;;;;;;;9.52;8.80;;;;;;;;;;5120237;28;20216;-65
2023/08/16 03:39:52;;;;;;;9.48;8.68;;;;;;;;;;5120007;28;20256;-65
2023/08/16 03:42:19;;;;;;;10.00;9.20;;;;;;;;;;5120076;28;20226;-65
2023/08/16 03:44:48;;;;;;;9.63;8.90;;;;;;;;;;5120419;28;20203;-65
2023/08/16 03:47:16;;;;;;;9.38;8.68;;;;;;;;;;5120095;28;20202;-65
2023/08/16 03:49:45;;;;;;;9.70;8.90;;;;;;;;;;5119869;28;20210;-65
2023/08/16 03:52:13;;;;;;;9.95;9.15;;;;;;;;;;5119828;28;20233;-65
2023/08/16 03:54:40;;;;;;;9.98;9.07;;;;;;;;;;5119259;28;20693;-65
2023/08/16 03:57:08;;;;;;;9.55;8.80;;;;;;;;;;5119994;28;20543;-64
2023/08/16 03:59:35;;;;;;;9.55;8.75;;;;;;;;;;5120301;28;20202;-64
2023/08/16 04:02:04;;;;;;;9.63;8.82;;;;;;;;;;5118962;28;20219;-65
2023/08/16 04:04:32;;;;;;;9.50;8.70;;;;;;;;;;5120106;28;20203;-65
2023/08/16 04:07:00;;;;;;;9.70;8.88;;;;;;;;;;5119950;28;20494;-65
2023/08/16 04:09:27;;;;;;;10.00;9.20;;;;;;;;;;5119708;28;20226;-65
2023/08/16 04:11:55;;;;;;;9.55;8.85;;;;;;;;;;5119701;28;20264;-64
2023/08/16 04:14:22;;;;;;;10.10;9.10;;;;;;;;;;5119323;28;20211;-65
2023/08/16 04:16:50;;;;;;;9.52;8.73;;;;;;;;;;5118200;28;20202;-65
2023/08/16 04:19:19;;;;;;;9.27;8.57;;;;;;;;;;5119575;28;20220;-65
2023/08/16 04:21:47;;;;;;;9.25;8.35;;;;;;;;;;5119179;28;20689;-65
2023/08/16 04:24:14;;;;;;;9.60;8.80;;;;;;;;;;5119475;28;20335;-65
2023/08/16 04:26:43;;;;;;;8.55;7.95;;;;;;;;;;5119126;28;20249;-65
2023/08/16 04:29:10;;;;;;;9.30;8.60;;;;;;;;;;5119090;28;20280;-65
2023/08/16 04:31:38;;;;;;;9.13;8.32;;;;;;;;;;5118988;28;20283;-65
2023/08/16 04:34:07;;;;;;;9.25;8.48;;;;;;;;;;5119545;28;20203;-65
2023/08/16 04:36:36;;;;;;;9.10;8.40;;;;;;;;;;5118646;28;20329;-65
2023/08/16 04:39:03;;;;;;;8.52;7.90;;;;;;;;;;5118662;28;20203;-64
2023/08/16 04:41:31;;;;;;;9.57;8.77;;;;;;;;;;5118222;28;20210;-65
2023/08/16 04:43:58;;;;;;;9.48;8.68;;;;;;;;;;5118205;28;20226;-65
2023/08/16 04:46:26;;;;;;;8.45;7.85;;;;;;;;;;5118421;28;20721;-65
2023/08/16 04:48:54;;;;;;;8.82;8.13;;;;;;;;;;5117854;28;20203;-66
2023/08/16 04:51:21;;;;;;;8.60;7.90;;;;;;;;;;5118265;28;20684;-66
2023/08/16 04:53:50;;;;;;;8.70;7.97;;;;;;;;;;5118125;28;20784;-65
2023/08/16 04:56:18;;;;;;;8.32;7.70;;;;;;;;;;5117964;28;20579;-65
2023/08/16 04:58:46;;;;;;;8.70;8.00;;;;;;;;;;5117686;28;20210;-64
2023/08/16 05:01:14;;;;;;;8.93;8.13;;;;;;;;;;5117594;28;20257;-64
2023/08/16 05:03:48;;;;;;;8.50;7.80;;;;;;;;;;5117400;28;20223;-64
2023/08/16 05:06:16;;;;;;;8.43;7.82;;;;;;;;;;5117986;28;20302;-64
2023/08/16 05:08:43;;;;;;;8.25;7.65;;;;;;;;;;5117959;28;20297;-64
2023/08/16 05:11:12;;;;;;;8.43;7.72;;;;;;;;;;5118260;27;20210;-64
2023/08/16 05:13:40;;;;;;;8.40;7.70;;;;;;;;;;5118107;28;20190;-65
2023/08/16 05:16:08;;;;;;;8.60;7.90;;;;;;;;;;5117891;28;20232;-64
2023/08/16 05:18:35;;;;;;;8.95;8.25;;;;;;;;;;5117479;28;20218;-64
2023/08/16 05:21:04;;;;;;;8.13;7.53;;;;;;;;;;5118482;28;20310;-64
2023/08/16 05:23:33;;;;;;;8.38;7.57;;;;;;;;;;5117689;28;20226;-64
2023/08/16 05:26:01;;;;;;;8.23;7.53;;;;;;;;;;5117747;28;20245;-64
2023/08/16 05:28:30;;;;;;;8.60;7.90;;;;;;;;;;5116704;28;20671;-65
2023/08/16 05:30:57;;;;;;;8.63;7.95;;;;;;;;;;5117581;28;20202;-64
2023/08/16 05:33:25;;;;;;;8.23;7.63;;;;;;;;;;5117139;28;20198;-64
2023/08/16 05:35:52;;;;;;;8.07;7.47;;;;;;;;;;5117311;28;20531;-65
2023/08/16 05:38:22;;;;;;;8.15;7.45;;;;;;;;;;5116834;28;20275;-65
2023/08/16 05:40:50;;;;;;;8.70;8.00;;;;;;;;;;5117316;28;20290;-65
2023/08/16 05:43:17;;;;;;;7.95;7.30;;;;;;;;;;5117057;28;20230;-64
2023/08/16 05:45:46;;;;;;;7.85;7.15;;;;;;;;;;5117422;28;20214;-65
2023/08/16 05:48:14;;;;;;;7.93;7.30;;;;;;;;;;5116885;28;20267;-65
2023/08/16 05:50:42;;;;;;;8.00;7.40;;;;;;;;;;5117149;28;20245;-65
2023/08/16 05:53:09;;;;;;;8.80;8.10;;;;;;;;;;5116963;28;20264;-65
2023/08/16 05:55:37;;;;;;;8.02;7.32;;;;;;;;;;5115958;28;20256;-64
2023/08/16 05:58:05;;;;;;;8.00;7.40;;;;;;;;;;5116932;28;20202;-64
2023/08/16 06:00:33;;;;;;;8.43;7.70;;;;;;;;;;5116462;28;20238;-64
2023/08/16 06:03:02;;;;;;;8.18;7.57;;;;;;;;;;5116877;28;20764;-65
2023/08/16 06:05:30;;;;;;;8.38;7.70;;;;;;;;;;5116397;28;20271;-65
2023/08/16 06:07:58;;;;;;;9.07;8.32;;;;;;;;;;5116893;28;20202;-64
2023/08/16 06:10:26;;;;;;;9.38;8.68;;;;;;;;;;5116477;28;20647;-64
2023/08/16 06:12:53;;;;;;;9.88;9.05;;;;;;;;;;5116903;28;20206;-64
2023/08/16 06:15:21;;;;;;;10.35;9.35;;;;;;;;;;5116491;28;20285;-64
2023/08/16 06:17:48;;;;;;;9.40;8.60;;;;;;;;;;5116732;28;20285;-64
2023/08/16 06:20:17;;;;;;;9.65;8.85;;;;;;;;;;5116348;28;20751;-64
2023/08/16 06:22:45;;;;;;;9.82;8.93;;;;;;;;;;5115611;28;20793;-64
2023/08/16 06:25:12;;;;;;;8.90;8.20;;;;;;;;;;5116357;28;20290;-65
2023/08/16 06:27:40;;;;;;;9.23;8.43;;;;;;;;;;5116322;28;20194;-64
2023/08/16 06:30:08;;;;;;;8.45;7.75;;;;;;;;;;5116371;28;20203;-64
2023/08/16 06:32:35;;;;;;;8.82;8.13;;;;;;;;;;5116320;28;20265;-64
2023/08/16 06:35:05;;;;;;;9.07;8.27;;;;;;;;;;5115352;28;20261;-65
2023/08/16 06:37:34;;;;;;;9.20;8.40;;;;;;;;;;5115723;28;20707;-64
2023/08/16 06:40:04;;;;;;;8.52;7.72;;;;;;;;;;5118027;28;20203;-65
2023/08/16 06:42:32;;;;;;;8.23;7.53;;;;;;;;;;5119726;28;20199;-64
2023/08/16 06:45:00;;;;;;;8.85;8.13;;;;;;;;;;5119803;28;20458;-66
2023/08/16 06:47:27;;;;;;;8.18;7.57;;;;;;;;;;5119882;28;20213;-66
2023/08/16 06:49:55;;;;;;;8.07;7.38;;;;;;;;;;5117946;28;20199;-65
2023/08/16 06:52:22;;;;;;;8.02;7.32;;;;;;;;;;5119329;28;20808;-65
2023/08/16 06:54:51;;;;;;;8.15;7.53;;;;;;;;;;5119243;28;20222;-65
2023/08/16 06:57:19;;;;;;;8.52;7.75;;;;;;;;;;5119300;28;20199;-65
2023/08/16 06:59:46;;;;;;;7.72;7.13;;;;;;;;;;5118926;28;20411;-64
2023/08/16 07:02:14;;;;;;;8.73;7.93;;;;;;;;;;5119275;28;20198;-65
2023/08/16 07:04:43;;;;;;;8.63;7.93;;;;;;;;;;5119412;28;20234;-64
2023/08/16 07:07:11;;;;;;;8.50;7.80;;;;;;;;;;5119464;28;20348;-64
2023/08/16 07:09:39;;;;;;;8.02;7.32;;;;;;;;;;5119950;28;20256;-64
2023/08/16 07:12:09;;;;;;;8.57;7.88;;;;;;;;;;5119005;28;20238;-64
2023/08/16 07:14:37;;;;;;;7.55;7.00;;;;;;;;;;5118223;27;20635;-65
2023/08/16 07:17:05;;;;;;;8.13;7.53;;;;;;;;;;5119104;28;20203;-64
2023/08/16 07:19:32;;;;;;;8.35;7.70;;;;;;;;;;5118663;28;20289;-64
2023/08/16 07:22:00;;;;;;;8.48;7.78;;;;;;;;;;5118808;28;20203;-64
2023/08/16 07:24:28;;;;;;;8.32;7.72;;;;;;;;;;5118055;28;20230;-64
2023/08/16 07:26:56;;;;;;;8.73;8.02;;;;;;;;;;5117968;28;20260;-64
2023/08/16 07:29:26;;;;;;;8.35;7.65;;;;;;;;;;5117897;28;20597;-64
2023/08/16 07:31:54;;;;;;;8.43;7.72;;;;;;;;;;5118892;28;20203;-64
2023/08/16 07:34:22;;;;;;;8.82;8.13;;;;;;;;;;5118740;28;20249;-65
2023/08/16 07:36:49;;;;;;;8.65;7.95;;;;;;;;;;5118140;28;20630;-64
2023/08/16 07:39:17;;;;;;;8.82;8.13;;;;;;;;;;5117421;28;20210;-64
2023/08/16 07:41:44;;;;;;;8.00;7.40;;;;;;;;;;5118161;28;20778;-66
2023/08/16 07:44:12;;;;;;;8.57;7.88;;;;;;;;;;5117743;28;20227;-65
2023/08/16 07:46:41;;;;;;;8.27;7.68;;;;;;;;;;5118411;28;20226;-65
2023/08/16 07:49:09;;;;;;;8.68;7.97;;;;;;;;;;5117948;28;20207;-65
2023/08/16 07:51:36;;;;;;;8.40;7.70;;;;;;;;;;5118568;28;20202;-65
2023/08/16 07:54:04;;;;;;;8.70;7.93;;;;;;;;;;5118359;28;20297;-65
2023/08/16 07:56:32;;;;;;;9.00;8.27;;;;;;;;;;5118433;28;20207;-64
2023/08/16 07:58:59;;;;;;;9.60;8.70;;;;;;;;;;5119282;28;20221;-64
2023/08/16 08:01:28;;;;;;;8.45;7.75;;;;;;;;;;5118901;28;20203;-65
2023/08/16 08:03:57;;;;;;;8.85;8.15;;;;;;;;;;5117980;28;20298;-64
2023/08/16 08:06:25;;;;;;;9.30;8.48;;;;;;;;;;5117926;28;20463;-64
2023/08/16 08:08:52;;;;;;;9.35;8.57;;;;;;;;;;5117582;28;20263;-64
2023/08/16 08:11:20;;;;;;;9.25;8.45;;;;;;;;;;5118376;28;20202;-64
2023/08/16 08:13:47;;;;;;;9.60;8.70;;;;;;;;;;5118464;28;20198;-65
2023/08/16 08:16:15;;;;;;;9.45;8.65;;;;;;;;;;5118194;27;20207;-65
2023/08/16 08:18:43;;;;;;;8.93;8.23;;;;;;;;;;5117901;28;20280;-65
2023/08/16 08:21:12;;;;;;;9.57;8.77;;;;;;;;;;5117381;28;20228;-64
2023/08/16 08:23:39;;;;;;;9.40;8.60;;;;;;;;;;5118033;28;20482;-65
2023/08/16 08:26:07;;;;;;;9.27;8.57;;;;;;;;;;5117718;28;20263;-64
2023/08/16 08:28:35;;;;;;;9.68;8.88;;;;;;;;;;5117504;28;20554;-65
2023/08/16 08:31:03;;;;;;;9.18;8.38;;;;;;;;;;5117819;27;20202;-65
2023/08/16 08:33:31;;;;;;;9.60;8.80;;;;;;;;;;5118360;28;20199;-65
2023/08/16 08:35:59;;;;;;;9.45;8.63;;;;;;;;;;5117423;28;20246;-65
2023/08/16 08:38:28;;;;;;;9.52;8.73;;;;;;;;;;5117152;28;20213;-65
2023/08/16 08:40:58;;;;;;;9.45;8.65;;;;;;;;;;5117315;28;20592;-65
2023/08/16 08:43:28;;;;;;;10.32;9.32;;;;;;;;;;5117164;28;20227;-65
2023/08/16 08:45:58;;;;;;;10.90;9.80;;;;;;;;;;5117555;28;20210;-65
2023/08/16 08:48:26;;;;;;;10.05;9.15;;;;;;;;;;5117255;28;20304;-65
2023/08/16 08:50:54;;;;;;;10.38;9.52;;;;;;;;;;5117263;28;20207;-65
2023/08/16 08:53:21;;;;;;;10.02;9.13;;;;;;;;;;5117070;28;20214;-65
2023/08/16 08:55:52;;;;;;;9.50;8.70;;;;;;;;;;5116731;28;20218;-65
2023/08/16 08:58:20;;;;;;;10.27;9.32;;;;;;;;;;5116328;28;20199;-66
2023/08/16 09:00:48;;;;;;;10.18;9.23;;;;;;;;;;5117004;28;20264;-65
2023/08/16 09:03:17;;;;;;;10.40;9.43;;;;;;;;;;5116550;28;20206;-65
2023/08/16 09:05:46;;;;;;;10.82;9.82;;;;;;;;;;5116771;28;20252;-64
2023/08/16 09:08:16;;;;;;;10.80;9.85;;;;;;;;;;5110504;28;20299;-65
2023/08/16 09:10:45;;;;;;;10.95;9.95;;;;;;;;;;5095976;28;20218;-65
2023/08/16 09:13:14;;;;;;;11.20;10.20;;;;;;;;;;5095410;28;20702;-65
2023/08/16 09:15:42;;;;;;;12.77;11.57;;;;;;;;;;5095770;28;20239;-65
2023/08/16 09:18:11;;;;;;;11.95;10.65;;;;;;;;;;5096522;28;20226;-65
2023/08/16 09:20:39;;;;;;;11.77;10.77;;;;;;;;;;5096129;28;20208;-64
2023/08/16 09:23:07;;;;;;;11.90;10.80;;;;;;;;;;5096315;28;20549;-65
2023/08/16 09:25:34;;;;;;;12.20;11.10;;;;;;;;;;5096216;28;20255;-69
2023/08/16 09:28:02;;;;;;;12.00;10.90;;;;;;;;;;5096225;28;20212;-64
2023/08/16 09:30:32;;;;;;;10.80;9.70;;;;;;;;;;5095670;28;20203;-65
2023/08/16 09:32:59;;;;;;;10.30;9.40;;;;;;;;;;5094894;28;20211;-65
2023/08/16 09:35:31;;;;;;;11.20;10.25;;;;;;;;;;5095093;28;20504;-64
2023/08/16 09:37:58;;;;;;;10.50;9.60;;;;;;;;;;5094790;28;20234;-65
2023/08/16 09:40:26;;;;;;;11.95;10.93;;;;;;;;;;5094226;28;20253;-65
2023/08/16 09:42:54;;;;;;;11.10;10.13;;;;;;;;;;5094565;28;20200;-65
2023/08/16 09:45:28;;;;;;;11.35;10.35;;;;;;;;;;5095576;28;20498;-64
2023/08/16 09:47:59;;;;;;;11.15;10.15;;;;;;;;;;5095540;28;20294;-65
2023/08/16 09:50:27;;;;;;;11.60;10.60;;;;;;;;;;5095037;28;20562;-64
2023/08/16 09:52:56;;;;;;;13.45;12.25;;;;;;;;;;5095629;28;20327;-66
2023/08/16 09:55:32;;;;;;;13.27;12.07;;;;;;;;;;5095037;28;20200;-66
2023/08/16 09:58:00;;;;;;;11.43;10.43;;;;;;;;;;5095619;28;20232;-65
2023/08/16 10:00:28;;;;;;;10.68;9.77;;;;;;;;;;5095016;28;20204;-65
2023/08/16 10:02:58;;;;;;;10.70;9.80;;;;;;;;;;5095168;28;20200;-65
2023/08/16 10:05:26;;;;;;;11.13;10.13;;;;;;;;;;5095411;28;20229;-64
2023/08/16 10:07:56;;;;;;;12.23;11.13;;;;;;;;;;5095154;28;20211;-64
2023/08/16 10:10:24;;;;;;;11.13;10.13;;;;;;;;;;5094773;28;20290;-64
2023/08/16 10:12:52;;;;;;;11.23;10.23;;;;;;;;;;5095912;28;20214;-65
2023/08/16 10:15:20;;;;;;;11.20;10.30;;;;;;;;;;5099133;28;20214;-65
2023/08/16 10:17:49;;;;;;;11.10;10.15;;;;;;;;;;5098991;28;20504;-64
2023/08/16 10:20:22;;;;;;;11.27;10.27;;;;;;;;;;5099142;28;20211;-64
2023/08/16 10:22:53;;;;;;;11.52;10.52;;;;;;;;;;5099524;28;20195;-65
2023/08/16 10:25:25;;;;;;;12.65;11.45;;;;;;;;;;5099293;28;20630;-64
2023/08/16 10:27:55;;;;;;;12.18;11.07;;;;;;;;;;5099037;28;20204;-64
2023/08/16 10:30:23;;;;;;;11.82;10.73;;;;;;;;;;5097805;28;20203;-65
2023/08/16 10:32:53;;;;;;;12.85;11.65;;;;;;;;;;5098232;28;20204;-64
2023/08/16 10:35:22;;;;;;;11.80;10.73;;;;;;;;;;5099004;28;20619;-64
2023/08/16 10:37:52;;;;;;;12.40;11.20;;;;;;;;;;5099065;28;20204;-64
2023/08/16 10:40:20;;;;;;;12.80;11.63;;;;;;;;;;5098471;28;20296;-65
2023/08/16 10:42:53;;;;;;;12.73;11.63;;;;;;;;;;5098567;28;20298;-65
2023/08/16 10:45:24;;;;;;;11.77;10.65;;;;;;;;;;5098352;28;20249;-64
2023/08/16 10:47:52;;;;;;;11.32;10.32;;;;;;;;;;5098263;28;20546;-65
2023/08/16 10:50:19;;;;;;;12.55;11.45;;;;;;;;;;5096912;28;20485;-65
2023/08/16 10:52:48;;;;;;;12.25;11.05;;;;;;;;;;5098066;28;20211;-64
2023/08/16 10:55:24;;;;;;;11.73;10.73;;;;;;;;;;5098185;28;20211;-65
2023/08/16 10:57:53;;;;;;;12.30;11.20;;;;;;;;;;5097816;28;20209;-65
2023/08/16 11:00:21;;;;;;;11.95;10.82;;;;;;;;;;5098237;28;20275;-65
2023/08/16 11:02:51;;;;;;;11.45;10.35;;;;;;;;;;5097593;28;20722;-65
2023/08/16 11:05:19;;;;;;;12.13;11.13;;;;;;;;;;5098824;28;20291;-65
2023/08/16 11:07:47;;;;;;;11.95;10.82;;;;;;;;;;5097972;28;20674;-65
2023/08/16 11:10:16;;;;;;;11.95;10.85;;;;;;;;;;5097349;28;20218;-65
2023/08/16 11:12:43;;;;;;;12.13;11.02;;;;;;;;;;5097849;28;20230;-65
2023/08/16 11:15:11;;;;;;;12.15;11.05;;;;;;;;;;5097732;28;20196;-65
2023/08/16 11:17:42;;;;;;;11.60;10.52;;;;;;;;;;5098173;28;20256;-65
2023/08/16 11:20:15;;;;;;;12.52;11.43;;;;;;;;;;5098189;28;20211;-65
2023/08/16 11:22:43;;;;;;;12.18;11.07;;;;;;;;;;5098949;28;20283;-65
2023/08/16 11:25:10;;;;;;;11.98;10.98;;;;;;;;;;5096477;28;20259;-65
2023/08/16 11:27:39;;;;;;;12.30;11.20;;;;;;;;;;5097581;28;20199;-65
2023/08/16 11:30:08;;;;;;;11.63;10.60;;;;;;;;;;5098290;28;20280;-65
2023/08/16 11:32:36;;;;;;;12.38;11.20;;;;;;;;;;5098057;28;20204;-65
2023/08/16 11:35:08;;;;;;;12.45;11.25;;;;;;;;;;5097047;28;20224;-65
2023/08/16 11:37:36;;;;;;;11.52;10.45;;;;;;;;;;5096985;28;20281;-66
2023/08/16 11:40:05;;;;;;;11.95;10.93;;;;;;;;;;5097530;28;20214;-65
2023/08/16 11:42:33;;;;;;;11.43;10.43;;;;;;;;;;5097546;28;20425;-65
2023/08/16 11:45:03;;;;;;;11.38;10.32;;;;;;;;;;5098184;28;20604;-65
2023/08/16 11:47:31;;;;;;;11.43;10.38;;;;;;;;;;5098407;28;20207;-65
2023/08/16 11:49:58;;;;;;;11.85;10.77;;;;;;;;;;5097520;28;20211;-65
2023/08/16 11:52:26;;;;;;;10.85;9.88;;;;;;;;;;5097341;28;20234;-65
2023/08/16 11:55:05;;;;;;;11.70;10.70;;;;;;;;;;5097157;28;20231;-65
2023/08/16 11:57:44;;;;;;;11.50;10.43;;;;;;;;;;5097971;28;20246;-65
2023/08/16 12:00:15;;;;;;;10.50;9.60;;;;;;;;;;5097584;28;20474;-65
2023/08/16 12:02:44;;;;;;;10.93;9.95;;;;;;;;;;5097304;28;20246;-66
2023/08/16 12:05:14;;;;;;;10.90;9.95;;;;;;;;;;5095951;28;20229;-65
2023/08/16 12:07:44;;;;;;;10.45;9.55;;;;;;;;;;5095682;28;20233;-65
2023/08/16 12:10:22;;;;;;;10.60;9.60;;;;;;;;;;5096423;28;20543;-65
2023/08/16 12:12:52;;;;;;;10.63;9.63;;;;;;;;;;5096695;28;20580;-65
2023/08/16 12:15:21;;;;;;;10.95;9.95;;;;;;;;;;5097054;28;20639;-65
2023/08/16 12:17:49;;;;;;;10.35;9.45;;;;;;;;;;5097735;28;20269;-65
2023/08/16 12:20:16;;;;;;;10.60;9.60;;;;;;;;;;5097121;28;20440;-65
2023/08/16 12:22:45;;;;;;;10.38;9.48;;;;;;;;;;5095747;28;20257;-65
2023/08/16 12:25:13;;;;;;;10.60;9.60;;;;;;;;;;5096226;28;20236;-65
2023/08/16 12:27:40;;;;;;;9.98;9.18;;;;;;;;;;5095987;28;20203;-64
2023/08/16 12:30:08;;;;;;;10.15;9.23;;;;;;;;;;5096421;28;20204;-65
2023/08/16 12:32:37;;;;;;;10.45;9.55;;;;;;;;;;5096435;28;20203;-65
2023/08/16 12:35:05;;;;;;;9.65;8.80;;;;;;;;;;5095927;28;20294;-65
2023/08/16 12:37:32;;;;;;;9.98;9.07;;;;;;;;;;5094869;28;20203;-65
2023/08/16 12:40:00;;;;;;;10.10;9.20;;;;;;;;;;5095177;28;20199;-65
2023/08/16 12:42:27;;;;;;;9.75;8.85;;;;;;;;;;5095045;28;20262;-65
2023/08/16 12:44:55;;;;;;;10.43;9.52;;;;;;;;;;5095581;28;20223;-65
2023/08/16 12:47:22;;;;;;;9.23;8.38;;;;;;;;;;5095978;28;20218;-65
2023/08/16 12:49:51;;;;;;;9.75;8.85;;;;;;;;;;5095753;28;20598;-65
2023/08/16 12:52:20;;;;;;;10.23;9.27;;;;;;;;;;5096309;28;20200;-65
2023/08/16 12:54:49;;;;;;;9.63;8.82;;;;;;;;;;5095904;28;20199;-65
2023/08/16 12:57:17;;;;;;;9.75;8.85;;;;;;;;;;5095657;28;20203;-65
2023/08/16 12:59:46;;;;;;;9.02;8.23;;;;;;;;;;5095104;28;20204;-65
2023/08/16 13:02:14;;;;;;;9.32;8.52;;;;;;;;;;5095412;28;20566;-65
2023/08/16 13:04:41;;;;;;;8.65;7.90;;;;;;;;;;5095410;28;20200;-64
2023/08/16 13:07:10;;;;;;;9.30;8.50;;;;;;;;;;5095019;28;20478;-64
2023/08/16 13:09:38;;;;;;;8.93;8.18;;;;;;;;;;5095153;28;20207;-65
2023/08/16 13:12:06;;;;;;;8.35;7.63;;;;;;;;;;5094819;28;20273;-65
2023/08/16 13:14:35;;;;;;;9.25;8.45;;;;;;;;;;5096007;28;20284;-64
2023/08/16 13:17:03;;;;;;;8.40;7.70;;;;;;;;;;5095269;28;20203;-64
2023/08/16 13:19:30;;;;;;;8.73;7.93;;;;;;;;;;5095626;28;20666;-65
2023/08/16 13:21:58;;;;;;;8.73;8.00;;;;;;;;;;5095237;28;20200;-64
2023/08/16 13:24:27;;;;;;;8.30;7.60;;;;;;;;;;5095440;28;20211;-64
2023/08/16 13:26:55;;;;;;;9.45;7.93;;;;;;;;;;5095566;28;20288;-64
2023/08/16 13:29:22;;;;;;;8.73;7.93;;;;;;;;;;5094186;28;20298;-64
2023/08/16 13:31:50;;;;;;;7.65;7.00;;;;;;;;;;5094188;28;20215;-64
2023/08/16 13:34:17;;;;;;;8.00;7.30;;;;;;;;;;5094188;28;20211;-64
2023/08/16 13:36:45;;;;;;;8.30;7.43;;;;;;;;;;5094638;28;20566;-64
2023/08/16 13:39:13;;;;;;;8.02;7.32;;;;;;;;;;5095538;28;20212;-65
2023/08/16 13:41:42;;;;;;;8.40;7.60;;;;;;;;;;5093748;28;20203;-64
2023/08/16 13:44:09;;;;;;;7.32;6.72;;;;;;;;;;5093686;28;20203;-64
2023/08/16 13:46:38;;;;;;;8.07;7.38;;;;;;;;;;5094657;28;20238;-64
2023/08/16 13:49:05;;;;;;;7.95;7.15;;;;;;;;;;5094623;28;20207;-64
2023/08/16 13:51:33;;;;;;;7.85;7.15;;;;;;;;;;5094169;28;20207;-64
2023/08/16 13:54:00;;;;;;;6.78;6.22;;;;;;;;;;5094384;28;20203;-64
2023/08/16 13:56:28;;;;;;;7.93;7.22;;;;;;;;;;5094467;28;20225;-64
2023/08/16 13:58:57;;;;;;;6.95;6.35;;;;;;;;;;5094642;28;20207;-64
2023/08/16 14:01:24;;;;;;;7.50;6.90;;;;;;;;;;5094418;28;20203;-65
2023/08/16 14:03:52;;;;;;;7.38;6.70;;;;;;;;;;5094095;28;20208;-64
2023/08/16 14:06:19;;;;;;;7.60;6.90;;;;;;;;;;5093830;28;20730;-64
2023/08/16 14:08:47;;;;;;;7.13;6.53;;;;;;;;;;5094816;28;20280;-64
2023/08/16 14:11:17;;;;;;;7.00;6.40;;;;;;;;;;5094443;28;20203;-64
2023/08/16 14:13:44;;;;;;;7.13;6.55;;;;;;;;;;5095485;28;20243;-65
2023/08/16 14:16:13;;;;;;;7.07;6.57;;;;;;;;;;5094645;28;20221;-65
2023/08/16 14:18:41;;;;;;;7.40;6.80;;;;;;;;;;5094827;28;20211;-65
2023/08/16 14:21:08;;;;;;;8.20;7.50;;;;;;;;;;5094572;28;20199;-65
2023/08/16 14:23:36;;;;;;;7.18;6.47;;;;;;;;;;5093330;28;20265;-65
2023/08/16 14:26:03;;;;;;;8.07;7.40;;;;;;;;;;5094146;28;20223;-65
2023/08/16 14:28:31;;;;;;;7.20;6.60;;;;;;;;;;5094540;28;20212;-65
2023/08/16 14:30:59;;;;;;;7.15;6.57;;;;;;;;;;5094645;28;20203;-65
2023/08/16 14:33:27;;;;;;;7.78;7.00;;;;;;;;;;5094779;28;20398;-65
2023/08/16 14:35:55;;;;;;;6.88;6.38;;;;;;;;;;5094291;28;20789;-65
2023/08/16 14:38:22;;;;;;;6.85;6.25;;;;;;;;;;5093744;28;20203;-64
2023/08/16 14:40:52;;;;;;;7.28;6.68;;;;;;;;;;5094743;28;20215;-64
2023/08/16 14:43:19;;;;;;;7.18;6.57;;;;;;;;;;5093073;28;20261;-64